Mexican Springs, New Mexico
Current Conditions -  °F | °C
As of 8:53 PM on Thursday 18 Dec 2014 (Local Time) from KRQE Reporting Station
Clear Clear  
Wind Chill: 28°   Ceiling: Unl
Heat Index: 28°   Visibility: 10mi
Dew Point: 24°   Wind: 3mph
Humidity: 85%   Direction: 180°S
Pressure: 30.17"   Gusts: NA
Location:  35.79°N, 108.83°W
Report Text: KRQE 190353Z AUTO 18003KT 10SM CLR M02/M04 A3017 RMK AO2 SLP207 T10221044 TSNO
Loading
Personal Weather Stations






























Interactive Weather Map New forecast layout! Learn more

10-Day Weather Forecast

Advertisements
Track Severe Weather on mobile